createdAt,value
2019-05-14T00:02:32.847Z,1035.51
2019-05-14T00:03:32.806Z,1035.50
2019-05-14T00:04:32.834Z,1035.51
2019-05-14T00:05:32.862Z,1035.47
2019-05-14T00:08:32.813Z,1035.43
2019-05-14T00:09:32.826Z,1035.42
2019-05-14T00:10:32.818Z,1035.42
2019-05-14T00:11:32.796Z,1035.42
2019-05-14T00:13:32.847Z,1035.47
2019-05-14T00:14:39.766Z,1035.44
2019-05-14T00:15:32.826Z,1035.42
2019-05-14T00:16:32.823Z,1035.41
2019-05-14T00:18:32.840Z,1035.44
2019-05-14T00:19:32.896Z,1035.36
2019-05-14T00:20:32.830Z,1035.40
2019-05-14T00:21:32.835Z,1035.37
2019-05-14T00:23:32.837Z,1035.38
2019-05-14T00:24:32.889Z,1035.38
2019-05-14T00:25:32.825Z,1035.33
2019-05-14T00:26:32.818Z,1035.38
2019-05-14T00:28:32.892Z,1035.37
2019-05-14T00:29:32.853Z,1035.38
2019-05-14T00:30:32.874Z,1035.37
2019-05-14T00:31:32.899Z,1035.37
2019-05-14T00:33:32.838Z,1035.42
2019-05-14T00:34:32.904Z,1035.42
2019-05-14T00:35:35.576Z,1035.36
2019-05-14T00:36:32.853Z,1035.43
2019-05-14T00:38:32.867Z,1035.45
2019-05-14T00:39:32.865Z,1035.47
2019-05-14T00:40:32.849Z,1035.42
2019-05-14T00:41:32.900Z,1035.43
2019-05-14T00:44:32.904Z,1035.40
2019-05-14T00:45:32.864Z,1035.41
2019-05-14T00:46:32.915Z,1035.43
2019-05-14T00:47:32.874Z,1035.46
2019-05-14T00:49:32.864Z,1035.42
2019-05-14T00:50:32.843Z,1035.54
2019-05-14T00:51:32.857Z,1035.45
2019-05-14T00:52:32.858Z,1035.49
2019-05-14T00:55:32.867Z,1035.48
2019-05-14T00:56:32.855Z,1035.49
2019-05-14T00:57:32.911Z,1035.49
2019-05-14T00:58:32.876Z,1035.52
2019-05-14T01:00:32.870Z,1035.52
2019-05-14T01:01:32.870Z,1035.52
2019-05-14T01:02:32.860Z,1035.52
2019-05-14T01:03:32.862Z,1035.49
2019-05-14T01:05:32.910Z,1035.49
2019-05-14T01:06:32.874Z,1035.55
2019-05-14T01:07:32.955Z,1035.54
2019-05-14T01:08:32.873Z,1035.51
2019-05-14T01:10:32.853Z,1035.51
2019-05-14T01:11:32.870Z,1035.52
2019-05-14T01:12:32.891Z,1035.50
2019-05-14T01:13:32.891Z,1035.48
2019-05-14T01:15:32.931Z,1035.42
2019-05-14T01:16:32.867Z,1035.49
2019-05-14T01:17:32.887Z,1035.47
2019-05-14T01:18:32.884Z,1035.46
2019-05-14T01:20:32.915Z,1035.40
2019-05-14T01:21:32.896Z,1035.43
2019-05-14T01:22:32.949Z,1035.35
2019-05-14T01:23:32.890Z,1035.40
2019-05-14T01:25:32.879Z,1035.39
2019-05-14T01:26:32.896Z,1035.39
2019-05-14T01:27:32.974Z,1035.39
2019-05-14T01:28:32.896Z,1035.41
2019-05-14T01:31:32.887Z,1035.26
2019-05-14T01:32:32.933Z,1035.33
2019-05-14T01:33:32.899Z,1035.29
2019-05-14T01:34:32.905Z,1035.30
2019-05-14T01:36:32.958Z,1035.28
2019-05-14T01:37:32.907Z,1035.24
2019-05-14T01:38:32.911Z,1035.17
2019-05-14T01:39:32.923Z,1035.21
2019-05-14T01:42:32.918Z,1035.14
2019-05-14T01:43:32.907Z,1035.13
2019-05-14T01:44:32.920Z,1035.06
2019-05-14T01:45:32.904Z,1035.12
2019-05-14T01:47:32.911Z,1035.00
2019-05-14T01:48:32.903Z,1035.04
2019-05-14T01:49:32.929Z,1035.08
2019-05-14T01:50:32.964Z,1035.02
2019-05-14T01:52:32.910Z,1034.99
2019-05-14T01:53:32.919Z,1034.98
2019-05-14T01:54:32.930Z,1035.00
2019-05-14T01:55:32.928Z,1034.95
2019-05-14T01:57:32.958Z,1034.91
2019-05-14T01:58:32.981Z,1034.96
2019-05-14T01:59:32.941Z,1034.91
2019-05-14T02:00:32.980Z,1034.93
2019-05-14T02:02:32.942Z,1034.96
2019-05-14T02:03:32.929Z,1034.95
2019-05-14T02:04:32.948Z,1034.92
2019-05-14T02:05:32.929Z,1034.91
2019-05-14T02:07:32.939Z,1034.89
2019-05-14T02:08:32.967Z,1034.92
2019-05-14T02:09:32.944Z,1034.96
2019-05-14T02:10:32.952Z,1034.88
2019-05-14T02:12:32.997Z,1034.98
2019-05-14T02:13:32.960Z,1035.02
2019-05-14T02:14:32.984Z,1034.95
2019-05-14T02:15:39.206Z,1034.94
2019-05-14T02:17:32.926Z,1034.95
2019-05-14T02:19:32.953Z,1034.90
2019-05-14T02:20:32.956Z,1034.93
2019-05-14T02:21:32.957Z,1034.90
2019-05-14T02:22:32.950Z,1034.90
2019-05-14T02:25:32.944Z,1034.97
2019-05-14T02:26:32.948Z,1034.98
2019-05-14T02:27:35.004Z,1034.95
2019-05-14T02:28:32.957Z,1034.93
2019-05-14T02:30:46.718Z,1034.94
2019-05-14T02:31:32.988Z,1034.96
2019-05-14T02:32:33.015Z,1034.97
2019-05-14T02:33:33.041Z,1034.95
2019-05-14T02:35:33.004Z,1035.02
2019-05-14T02:36:32.955Z,1034.99
2019-05-14T02:37:32.969Z,1035.04
2019-05-14T02:38:32.950Z,1035.00
2019-05-14T02:41:33.024Z,1034.96
2019-05-14T02:42:33.002Z,1035.04
2019-05-14T02:43:32.955Z,1035.00
2019-05-14T02:44:32.961Z,1034.99
2019-05-14T02:46:32.961Z,1034.98
2019-05-14T02:47:33.023Z,1034.98
2019-05-14T02:48:32.985Z,1035.00
2019-05-14T02:49:33.041Z,1034.96
2019-05-14T02:51:32.984Z,1034.91
2019-05-14T02:52:33.023Z,1034.91
2019-05-14T02:53:32.998Z,1034.90
2019-05-14T02:54:32.984Z,1034.89
2019-05-14T02:57:33.038Z,1034.89
2019-05-14T02:58:33.044Z,1034.90
2019-05-14T02:59:32.982Z,1034.91
2019-05-14T03:00:33.007Z,1034.90
2019-05-14T03:02:32.986Z,1034.89
2019-05-14T03:03:33.004Z,1034.91
2019-05-14T03:04:33.003Z,1034.88
2019-05-14T03:05:33.007Z,1034.87
2019-05-14T03:07:33.065Z,1034.91
2019-05-14T03:08:33.010Z,1034.91
2019-05-14T03:09:32.984Z,1034.90
2019-05-14T03:10:32.986Z,1034.92
2019-05-14T03:12:33.022Z,1035.00
2019-05-14T03:13:33.056Z,1034.94
2019-05-14T03:14:33.001Z,1034.96
2019-05-14T03:15:33.012Z,1034.99
2019-05-14T03:17:33.004Z,1034.99
2019-05-14T03:18:33.009Z,1034.97
2019-05-14T03:19:33.001Z,1035.00
2019-05-14T03:20:33.036Z,1035.02
2019-05-14T03:22:46.760Z,1034.97
2019-05-14T03:23:32.996Z,1035.04
2019-05-14T03:24:33.068Z,1034.99
2019-05-14T03:25:33.027Z,1034.99
2019-05-14T03:27:32.990Z,1034.97
2019-05-14T03:28:33.022Z,1034.99
2019-05-14T03:29:33.060Z,1034.96
2019-05-14T03:30:33.248Z,1035.05
2019-05-14T03:32:33.521Z,1034.99
2019-05-14T03:33:34.381Z,1034.96
2019-05-14T03:34:33.784Z,1034.97
2019-05-14T03:35:42.061Z,1034.86
2019-05-14T03:37:33.018Z,1034.87
2019-05-14T03:38:33.046Z,1034.88
2019-05-14T03:39:33.038Z,1034.82
2019-05-14T03:40:33.055Z,1034.86
2019-05-14T03:42:33.053Z,1034.78
2019-05-14T03:43:33.060Z,1034.82
2019-05-14T03:44:33.027Z,1034.82
2019-05-14T03:45:33.033Z,1034.77
2019-05-14T03:47:33.048Z,1034.79
2019-05-14T03:48:33.067Z,1034.83
2019-05-14T03:49:33.047Z,1034.75
2019-05-14T03:50:33.041Z,1034.78
2019-05-14T03:52:33.083Z,1034.73
2019-05-14T03:53:49.697Z,1034.80
2019-05-14T03:54:33.058Z,1034.88
2019-05-14T03:55:33.047Z,1034.80
2019-05-14T03:57:33.026Z,1034.78
2019-05-14T03:58:33.108Z,1034.82
2019-05-14T03:59:33.121Z,1034.84
2019-05-14T04:00:33.053Z,1034.81
2019-05-14T04:02:33.045Z,1034.77
2019-05-14T04:03:33.066Z,1034.81
2019-05-14T04:04:33.049Z,1034.79
2019-05-14T04:05:33.060Z,1034.80
2019-05-14T04:08:33.080Z,1034.84
2019-05-14T04:09:33.057Z,1034.81
2019-05-14T04:10:33.061Z,1034.81
2019-05-14T04:11:33.056Z,1034.83
2019-05-14T04:13:33.063Z,1034.85
2019-05-14T04:14:33.102Z,1034.83
2019-05-14T04:15:33.079Z,1034.80
2019-05-14T04:16:33.065Z,1034.79
2019-05-14T04:18:33.043Z,1034.80
2019-05-14T04:19:33.061Z,1034.78
2019-05-14T04:20:33.055Z,1034.80
2019-05-14T04:21:33.104Z,1034.82
2019-05-14T04:23:33.114Z,1034.81
2019-05-14T04:24:36.728Z,1034.77
2019-05-14T04:25:33.077Z,1034.74
2019-05-14T04:26:50.888Z,1034.69
2019-05-14T04:28:33.137Z,1034.76
2019-05-14T04:29:33.082Z,1034.73
2019-05-14T04:30:33.063Z,1034.69
2019-05-14T04:31:33.077Z,1034.73
2019-05-14T04:33:33.099Z,1034.73
2019-05-14T04:34:33.100Z,1034.77
2019-05-14T04:35:33.086Z,1034.77
2019-05-14T04:36:33.150Z,1034.74
2019-05-14T04:38:33.083Z,1034.76
2019-05-14T04:39:33.100Z,1034.74
2019-05-14T04:40:33.107Z,1034.76
2019-05-14T04:41:33.083Z,1034.76
2019-05-14T04:43:33.104Z,1034.74
2019-05-14T04:44:33.090Z,1034.68
2019-05-14T04:45:33.097Z,1034.75
2019-05-14T04:46:33.108Z,1034.71
2019-05-14T04:49:33.141Z,1034.76
2019-05-14T04:50:33.086Z,1034.71
2019-05-14T04:51:33.094Z,1034.75
2019-05-14T04:52:33.103Z,1034.74
2019-05-14T04:54:33.106Z,1034.75
2019-05-14T04:55:33.166Z,1034.69
2019-05-14T04:56:33.122Z,1034.78
2019-05-14T04:57:33.122Z,1034.77
2019-05-14T04:59:33.111Z,1034.77
2019-05-14T05:00:33.125Z,1034.76
2019-05-14T05:01:33.156Z,1034.79
2019-05-14T05:02:33.120Z,1034.66
2019-05-14T05:05:33.155Z,1034.70
2019-05-14T05:07:33.107Z,1034.69
2019-05-14T05:08:33.122Z,1034.62
2019-05-14T05:09:33.114Z,1034.74
2019-05-14T05:10:33.131Z,1034.74
2019-05-14T05:12:33.112Z,1034.80
2019-05-14T05:13:33.175Z,1034.85
2019-05-14T05:14:33.138Z,1034.79
2019-05-14T05:15:33.106Z,1034.76
2019-05-14T05:17:44.193Z,1034.80
2019-05-14T05:18:33.114Z,1034.83
2019-05-14T05:19:33.132Z,1034.82
2019-05-14T05:22:33.134Z,1034.77
2019-05-14T05:23:33.130Z,1034.78
2019-05-14T05:24:33.120Z,1034.79
2019-05-14T05:25:33.126Z,1034.74
2019-05-14T05:27:33.242Z,1034.66
2019-05-14T05:28:33.171Z,1034.69
2019-05-14T05:29:33.141Z,1034.74
2019-05-14T05:30:33.211Z,1034.69
2019-05-14T05:33:33.178Z,1034.67
2019-05-14T05:34:33.146Z,1034.66
2019-05-14T05:35:33.146Z,1034.62
2019-05-14T05:37:33.144Z,1034.66
2019-05-14T05:38:33.216Z,1034.59
2019-05-14T05:39:33.143Z,1034.59
2019-05-14T05:40:33.162Z,1034.64
2019-05-14T05:42:33.148Z,1034.55
2019-05-14T05:43:33.138Z,1034.62
2019-05-14T05:44:33.213Z,1034.62
2019-05-14T05:45:33.220Z,1034.65
2019-05-14T05:47:33.154Z,1034.62
2019-05-14T05:48:33.163Z,1034.57
2019-05-14T05:49:33.140Z,1034.55
2019-05-14T05:50:33.201Z,1034.51
2019-05-14T05:53:33.140Z,1034.56
2019-05-14T05:54:33.214Z,1034.52
2019-05-14T05:55:33.183Z,1034.54
2019-05-14T05:56:33.219Z,1034.50
2019-05-14T05:58:33.216Z,1034.51
2019-05-14T05:59:33.166Z,1034.52
2019-05-14T06:00:33.162Z,1034.57
2019-05-14T06:01:42.873Z,1034.48
2019-05-14T06:03:33.158Z,1034.50
2019-05-14T06:04:33.172Z,1034.39
2019-05-14T06:05:33.185Z,1034.44
2019-05-14T06:06:33.187Z,1034.46
2019-05-14T06:08:33.177Z,1034.37
2019-05-14T06:09:33.186Z,1034.44
2019-05-14T06:10:33.183Z,1034.45
2019-05-14T06:11:33.185Z,1034.40
2019-05-14T06:14:33.241Z,1034.33
2019-05-14T06:15:44.447Z,1034.37
2019-05-14T06:16:33.161Z,1034.44
2019-05-14T06:17:33.234Z,1034.40
2019-05-14T06:19:33.200Z,1034.42
2019-05-14T06:20:33.237Z,1034.39
2019-05-14T06:21:33.183Z,1034.38
2019-05-14T06:22:33.248Z,1034.42
2019-05-14T06:25:33.199Z,1034.36
2019-05-14T06:26:33.206Z,1034.36
2019-05-14T06:27:33.253Z,1034.36
2019-05-14T06:28:33.694Z,1034.32
2019-05-14T06:31:33.199Z,1034.33
2019-05-14T06:32:33.249Z,1034.29
2019-05-14T06:33:33.189Z,1034.26
2019-05-14T06:34:33.202Z,1034.33
2019-05-14T06:37:33.256Z,1034.33
2019-05-14T06:38:33.212Z,1034.31
2019-05-14T06:39:33.206Z,1034.34
2019-05-14T06:40:33.213Z,1034.25
2019-05-14T06:42:33.252Z,1034.33
2019-05-14T06:43:33.203Z,1034.26
2019-05-14T06:44:33.196Z,1034.22
2019-05-14T06:45:33.224Z,1034.24
2019-05-14T06:47:33.207Z,1034.18
2019-05-14T06:48:34.756Z,1034.18
2019-05-14T06:49:33.263Z,1034.26
2019-05-14T06:50:33.214Z,1034.17
2019-05-14T06:53:33.265Z,1034.16
2019-05-14T06:54:33.240Z,1034.18
2019-05-14T06:55:33.274Z,1034.16
2019-05-14T06:56:33.273Z,1034.19
2019-05-14T06:58:33.276Z,1034.13
2019-05-14T06:59:33.233Z,1034.14
2019-05-14T07:00:33.300Z,1034.14
2019-05-14T07:01:33.205Z,1034.13
2019-05-14T07:04:33.282Z,1034.16
2019-05-14T07:05:33.231Z,1034.07
2019-05-14T07:06:33.251Z,1034.11
2019-05-14T07:07:33.276Z,1034.17
2019-05-14T07:10:33.216Z,1034.09
2019-05-14T07:11:33.253Z,1034.15
2019-05-14T07:12:33.260Z,1034.18
2019-05-14T07:13:33.227Z,1034.19
2019-05-14T07:15:33.258Z,1034.08
2019-05-14T07:16:33.284Z,1034.14
2019-05-14T07:17:33.278Z,1034.15
2019-05-14T07:18:45.457Z,1034.13
2019-05-14T07:21:33.306Z,1034.10
2019-05-14T07:22:33.230Z,1034.17
2019-05-14T07:23:33.241Z,1034.11
2019-05-14T07:24:33.237Z,1034.12
2019-05-14T07:26:33.257Z,1034.16
2019-05-14T07:27:33.253Z,1034.20
2019-05-14T07:28:33.260Z,1034.19
2019-05-14T07:29:33.256Z,1034.13
2019-05-14T07:31:33.350Z,1034.18
2019-05-14T07:32:33.316Z,1034.20
2019-05-14T07:33:33.306Z,1034.24
2019-05-14T07:34:33.266Z,1034.14
2019-05-14T07:36:33.275Z,1034.08
2019-05-14T07:37:33.320Z,1034.08
2019-05-14T07:38:33.268Z,1034.08
2019-05-14T07:39:33.282Z,1034.05
2019-05-14T07:41:33.245Z,1034.09
2019-05-14T07:42:33.270Z,1034.10
2019-05-14T07:43:33.325Z,1034.15
2019-05-14T07:44:33.246Z,1034.06
2019-05-14T07:46:33.276Z,1034.06
2019-05-14T07:47:33.304Z,1034.10
2019-05-14T07:48:33.271Z,1034.00
2019-05-14T07:49:33.292Z,1034.08
2019-05-14T07:51:33.275Z,1033.98
2019-05-14T07:52:33.330Z,1033.97
2019-05-14T07:53:38.747Z,1033.94
2019-05-14T07:54:33.288Z,1034.00
2019-05-14T07:56:33.274Z,1033.97
2019-05-14T07:58:33.333Z,1033.89
2019-05-14T07:59:33.270Z,1033.90
2019-05-14T08:00:33.324Z,1033.91
2019-05-14T08:01:33.295Z,1033.93
2019-05-14T08:03:33.323Z,1033.89
2019-05-14T08:04:33.293Z,1033.93
2019-05-14T08:05:33.278Z,1033.94
2019-05-14T08:06:33.356Z,1033.97
2019-05-14T08:08:33.293Z,1034.00
2019-05-14T08:09:33.308Z,1033.93
2019-05-14T08:10:33.326Z,1034.02
2019-05-14T08:11:33.309Z,1033.93
2019-05-14T08:13:33.298Z,1033.97
2019-05-14T08:14:41.734Z,1033.93
2019-05-14T08:15:33.293Z,1033.93
2019-05-14T08:16:33.315Z,1033.92
2019-05-14T08:18:33.305Z,1033.96
2019-05-14T08:19:34.528Z,1033.90
2019-05-14T08:20:33.321Z,1033.94
2019-05-14T08:21:33.297Z,1033.92
2019-05-14T08:24:33.319Z,1033.93
2019-05-14T08:25:33.361Z,1033.86
2019-05-14T08:26:33.367Z,1034.00
2019-05-14T08:27:33.299Z,1033.98
2019-05-14T08:30:33.324Z,1033.94
2019-05-14T08:31:33.323Z,1033.96
2019-05-14T08:32:33.313Z,1034.03
2019-05-14T08:33:33.387Z,1033.93
2019-05-14T08:36:33.376Z,1033.93
2019-05-14T08:37:33.329Z,1033.97
2019-05-14T08:38:33.356Z,1033.96
2019-05-14T08:39:33.341Z,1033.95
2019-05-14T08:41:33.309Z,1033.96
2019-05-14T08:42:34.378Z,1033.95
2019-05-14T08:43:33.413Z,1033.94
2019-05-14T08:44:33.327Z,1034.00
2019-05-14T08:46:33.334Z,1033.97
2019-05-14T08:47:33.393Z,1034.04
2019-05-14T08:48:33.343Z,1033.92
2019-05-14T08:49:42.491Z,1033.93
2019-05-14T08:51:33.400Z,1033.89
2019-05-14T08:52:33.372Z,1033.86
2019-05-14T08:53:33.327Z,1033.89
2019-05-14T08:54:33.328Z,1033.85
2019-05-14T08:56:33.358Z,1033.81
2019-05-14T08:57:33.406Z,1033.80
2019-05-14T08:58:33.351Z,1033.80
2019-05-14T08:59:33.404Z,1033.76
2019-05-14T09:01:33.363Z,1033.74
2019-05-14T09:02:33.365Z,1033.66
2019-05-14T09:03:33.344Z,1033.70
2019-05-14T09:04:33.389Z,1033.65
2019-05-14T09:06:33.347Z,1033.67
2019-05-14T09:07:33.350Z,1033.65
2019-05-14T09:08:33.348Z,1033.64
2019-05-14T09:09:33.372Z,1033.54
2019-05-14T09:11:36.241Z,1033.41
2019-05-14T09:12:33.419Z,1033.45
2019-05-14T09:13:33.345Z,1033.43
2019-05-14T09:14:33.363Z,1033.39
2019-05-14T09:16:45.912Z,1033.41
2019-05-14T09:17:33.369Z,1033.32
2019-05-14T09:18:33.353Z,1033.37
2019-05-14T09:19:33.346Z,1033.29
2019-05-14T09:21:33.384Z,1033.30
2019-05-14T09:22:33.364Z,1033.35
2019-05-14T09:23:33.383Z,1033.26
2019-05-14T09:24:33.393Z,1033.34
2019-05-14T09:26:33.372Z,1033.19
2019-05-14T09:27:33.337Z,1033.27
2019-05-14T09:28:33.360Z,1033.26
2019-05-14T09:29:33.445Z,1033.20
2019-05-14T09:31:33.437Z,1033.18
2019-05-14T09:32:33.386Z,1033.29
2019-05-14T09:33:33.398Z,1033.24
2019-05-14T09:34:33.441Z,1033.28
2019-05-14T09:36:33.374Z,1033.19
2019-05-14T09:37:33.399Z,1033.20
2019-05-14T09:38:33.420Z,1033.23
2019-05-14T09:39:33.390Z,1033.21
2019-05-14T09:41:33.444Z,1033.18
2019-05-14T09:42:33.440Z,1033.14
2019-05-14T09:43:33.379Z,1033.15
2019-05-14T09:44:33.472Z,1033.17
2019-05-14T09:47:33.445Z,1033.05
2019-05-14T09:48:33.396Z,1033.04
2019-05-14T09:49:33.402Z,1033.04
2019-05-14T09:50:33.384Z,1033.00
2019-05-14T09:52:33.406Z,1032.96
2019-05-14T09:53:33.404Z,1033.06
2019-05-14T09:54:33.468Z,1033.17
2019-05-14T09:55:33.405Z,1033.11
2019-05-14T09:57:33.380Z,1033.08
2019-05-14T09:58:33.417Z,1033.13
2019-05-14T09:59:33.421Z,1033.13
2019-05-14T10:00:33.422Z,1033.06
2019-05-14T10:02:33.466Z,1033.06
2019-05-14T10:03:33.388Z,1032.99
2019-05-14T10:04:33.382Z,1032.98
2019-05-14T10:05:33.405Z,1033.03
2019-05-14T10:07:33.938Z,1033.01
2019-05-14T10:08:33.463Z,1033.05
2019-05-14T10:09:33.467Z,1033.06
2019-05-14T10:10:33.420Z,1033.02
2019-05-14T10:12:37.884Z,1032.98
2019-05-14T10:13:33.418Z,1033.03
2019-05-14T10:14:33.426Z,1033.06
2019-05-14T10:15:33.415Z,1033.11
2019-05-14T10:17:33.430Z,1033.16
2019-05-14T10:18:33.406Z,1033.10
2019-05-14T10:19:33.428Z,1033.14
2019-05-14T10:20:39.603Z,1033.12
2019-05-14T10:22:33.476Z,1033.18
2019-05-14T10:23:33.441Z,1033.14
2019-05-14T10:24:33.410Z,1033.12
2019-05-14T10:25:33.422Z,1033.10
2019-05-14T10:27:33.432Z,1033.13
2019-05-14T10:28:33.426Z,1033.07
2019-05-14T10:29:33.408Z,1033.03
2019-05-14T10:30:33.486Z,1032.99
2019-05-14T10:33:33.434Z,1032.96
2019-05-14T10:34:33.420Z,1032.88
2019-05-14T10:35:33.436Z,1032.83
2019-05-14T10:36:33.438Z,1032.86
2019-05-14T10:38:33.440Z,1032.85
2019-05-14T10:39:33.431Z,1032.91
2019-05-14T10:40:33.434Z,1032.84
2019-05-14T10:41:33.508Z,1032.85
2019-05-14T10:43:33.457Z,1032.73
2019-05-14T10:44:33.444Z,1032.73
2019-05-14T10:45:33.446Z,1032.75
2019-05-14T10:46:33.462Z,1032.70
2019-05-14T10:49:33.453Z,1032.62
2019-05-14T10:50:37.766Z,1032.67
2019-05-14T10:51:33.453Z,1032.59
2019-05-14T10:52:33.448Z,1032.57
2019-05-14T10:54:33.456Z,1032.57
2019-05-14T10:55:33.451Z,1032.61
2019-05-14T10:56:33.495Z,1032.58
2019-05-14T10:57:33.507Z,1032.53
2019-05-14T10:59:33.473Z,1032.61
2019-05-14T11:00:33.491Z,1032.57
2019-05-14T11:01:33.489Z,1032.57
2019-05-14T11:03:33.511Z,1032.58
2019-05-14T11:04:34.612Z,1032.60
2019-05-14T11:05:33.478Z,1032.49
2019-05-14T11:06:33.471Z,1032.57
2019-05-14T11:08:33.484Z,1032.48
2019-05-14T11:09:33.481Z,1032.51
2019-05-14T11:10:33.489Z,1032.52
2019-05-14T11:11:33.464Z,1032.45
2019-05-14T11:14:33.498Z,1032.32
2019-05-14T11:15:33.489Z,1032.32
2019-05-14T11:16:33.471Z,1032.42
2019-05-14T11:17:33.476Z,1032.38
2019-05-14T11:19:33.482Z,1032.32
2019-05-14T11:20:33.476Z,1032.29
2019-05-14T11:21:33.515Z,1032.32
2019-05-14T11:22:33.473Z,1032.29
2019-05-14T11:25:33.489Z,1032.31
2019-05-14T11:26:33.511Z,1032.36
2019-05-14T11:27:33.486Z,1032.36
2019-05-14T11:28:33.513Z,1032.30
2019-05-14T11:30:33.548Z,1032.19
2019-05-14T11:31:34.297Z,1032.19
2019-05-14T11:33:33.497Z,1032.14
2019-05-14T11:34:33.501Z,1032.11
2019-05-14T11:35:33.496Z,1032.13
2019-05-14T11:36:33.507Z,1032.15
2019-05-14T11:38:37.257Z,1032.05
2019-05-14T11:39:33.554Z,1032.15
2019-05-14T11:40:33.556Z,1032.04
2019-05-14T11:41:38.730Z,1032.07
2019-05-14T11:43:33.550Z,1032.12
2019-05-14T11:44:33.522Z,1032.00
2019-05-14T11:45:33.517Z,1032.00
2019-05-14T11:46:42.283Z,1031.94
2019-05-14T11:48:33.492Z,1031.96
2019-05-14T11:49:33.504Z,1031.93
2019-05-14T11:50:33.508Z,1031.89
2019-05-14T11:51:58.996Z,1031.78
2019-05-14T11:53:33.592Z,1031.76
2019-05-14T11:54:33.535Z,1031.82
2019-05-14T11:55:33.508Z,1031.73
2019-05-14T11:56:33.498Z,1031.71
2019-05-14T11:58:33.581Z,1031.82
2019-05-14T11:59:33.500Z,1031.75
2019-05-14T12:00:33.513Z,1031.75
2019-05-14T12:01:33.579Z,1031.73
2019-05-14T12:03:33.548Z,1031.66
2019-05-14T12:04:33.536Z,1031.67
2019-05-14T12:05:33.551Z,1031.73
2019-05-14T12:06:33.556Z,1031.59
2019-05-14T12:08:33.534Z,1031.62
2019-05-14T12:09:33.540Z,1031.57
2019-05-14T12:10:33.500Z,1031.60
2019-05-14T12:11:33.513Z,1031.53
2019-05-14T12:13:33.535Z,1031.50
2019-05-14T12:14:33.541Z,1031.46
2019-05-14T12:15:33.537Z,1031.45
2019-05-14T12:16:33.567Z,1031.46
2019-05-14T12:18:33.520Z,1031.46
2019-05-14T12:19:33.569Z,1031.48
2019-05-14T12:20:33.551Z,1031.43
2019-05-14T12:21:33.538Z,1031.53
2019-05-14T12:24:33.580Z,1031.31
2019-05-14T12:25:33.543Z,1031.38
2019-05-14T12:26:33.614Z,1031.34
2019-05-14T12:27:33.574Z,1031.29
2019-05-14T12:29:33.591Z,1031.39
2019-05-14T12:30:33.556Z,1031.38
2019-05-14T12:31:33.539Z,1031.46
2019-05-14T12:32:33.555Z,1031.42
2019-05-14T12:34:33.564Z,1031.40
2019-05-14T12:35:33.555Z,1031.46
2019-05-14T12:36:33.591Z,1031.38
2019-05-14T12:37:33.581Z,1031.30
2019-05-14T12:39:33.554Z,1031.36
2019-05-14T12:40:33.589Z,1031.32
2019-05-14T12:41:33.558Z,1031.28
2019-05-14T12:42:33.550Z,1031.26
2019-05-14T12:44:37.117Z,1031.24
2019-05-14T12:45:33.581Z,1031.21
2019-05-14T12:46:33.609Z,1031.28
2019-05-14T12:47:33.597Z,1031.24
2019-05-14T12:49:33.565Z,1031.21
2019-05-14T12:50:33.573Z,1031.18
2019-05-14T12:51:33.589Z,1031.20
2019-05-14T12:52:33.573Z,1031.19
2019-05-14T12:54:33.569Z,1031.23
2019-05-14T12:55:33.586Z,1031.29
2019-05-14T12:56:33.552Z,1031.21
2019-05-14T12:57:33.590Z,1031.17
2019-05-14T12:59:33.575Z,1031.23
2019-05-14T13:00:33.567Z,1031.17
2019-05-14T13:01:33.603Z,1031.21
2019-05-14T13:02:33.585Z,1031.18
2019-05-14T13:05:33.645Z,1031.00
2019-05-14T13:06:33.594Z,1030.97
2019-05-14T13:07:33.592Z,1030.95
2019-05-14T13:08:33.630Z,1031.00
2019-05-14T13:10:33.592Z,1030.93
2019-05-14T13:11:33.653Z,1031.00
2019-05-14T13:12:33.644Z,1031.02
2019-05-14T13:13:33.601Z,1030.97
2019-05-14T13:15:33.602Z,1030.96
2019-05-14T13:16:33.599Z,1030.98
2019-05-14T13:17:33.626Z,1030.89
2019-05-14T13:18:33.621Z,1030.97
2019-05-14T13:20:33.630Z,1030.87
2019-05-14T13:21:33.627Z,1030.96
2019-05-14T13:22:42.305Z,1030.89
2019-05-14T13:23:33.671Z,1030.90
2019-05-14T13:25:33.660Z,1030.91
2019-05-14T13:26:33.681Z,1030.87
2019-05-14T13:27:33.621Z,1030.87
2019-05-14T13:28:33.623Z,1030.80
2019-05-14T13:30:33.639Z,1030.74
2019-05-14T13:31:33.619Z,1030.77
2019-05-14T13:32:33.608Z,1030.72
2019-05-14T13:33:33.598Z,1030.66
2019-05-14T13:35:33.621Z,1030.55
2019-05-14T13:36:33.678Z,1030.53
2019-05-14T13:37:33.670Z,1030.55
2019-05-14T13:38:33.622Z,1030.64
2019-05-14T13:41:33.675Z,1030.55
2019-05-14T13:42:33.616Z,1030.48
2019-05-14T13:43:33.636Z,1030.49
2019-05-14T13:44:33.597Z,1030.45
2019-05-14T13:46:33.676Z,1030.43
2019-05-14T13:47:33.694Z,1030.44
2019-05-14T13:48:33.642Z,1030.46
2019-05-14T13:49:33.629Z,1030.44
2019-05-14T13:51:33.826Z,1030.43
2019-05-14T13:52:33.713Z,1030.41
2019-05-14T13:53:33.648Z,1030.36
2019-05-14T13:54:33.632Z,1030.40
2019-05-14T13:57:33.697Z,1030.39
2019-05-14T13:58:33.661Z,1030.41
2019-05-14T13:59:33.723Z,1030.38
2019-05-14T14:00:33.695Z,1030.29
2019-05-14T14:03:33.758Z,1030.26
2019-05-14T14:04:33.661Z,1030.38
2019-05-14T14:05:33.669Z,1030.40
2019-05-14T14:06:33.727Z,1030.37
2019-05-14T14:08:33.715Z,1030.30
2019-05-14T14:09:33.672Z,1030.43
2019-05-14T14:10:36.370Z,1030.39
2019-05-14T14:11:33.719Z,1030.40
2019-05-14T14:13:33.657Z,1030.30
2019-05-14T14:14:33.688Z,1030.24
2019-05-14T14:15:33.713Z,1030.15
2019-05-14T14:16:33.735Z,1030.17
2019-05-14T14:18:33.723Z,1030.16
2019-05-14T14:19:33.736Z,1030.14
2019-05-14T14:20:33.723Z,1030.16
2019-05-14T14:21:33.660Z,1030.11
2019-05-14T14:24:33.719Z,1030.02
2019-05-14T14:25:33.681Z,1029.95
2019-05-14T14:26:33.688Z,1029.89
2019-05-14T14:27:33.703Z,1029.94
2019-05-14T14:29:33.671Z,1029.96
2019-05-14T14:30:33.672Z,1030.00
2019-05-14T14:31:33.710Z,1029.98
2019-05-14T14:32:33.718Z,1029.95
2019-05-14T14:34:33.683Z,1029.96
2019-05-14T14:35:33.687Z,1030.00
2019-05-14T14:36:33.687Z,1029.96
2019-05-14T14:37:33.747Z,1029.96
2019-05-14T14:39:33.668Z,1029.95
2019-05-14T14:40:33.683Z,1029.93
2019-05-14T14:41:33.756Z,1029.94
2019-05-14T14:42:35.688Z,1029.99
2019-05-14T14:44:33.737Z,1029.96
2019-05-14T14:45:33.713Z,1029.93
2019-05-14T14:46:33.741Z,1029.93
2019-05-14T14:47:33.717Z,1029.90
2019-05-14T14:49:33.691Z,1029.86
2019-05-14T14:50:33.714Z,1029.86
2019-05-14T14:51:33.706Z,1029.83
2019-05-14T14:52:33.798Z,1029.78
2019-05-14T14:55:33.693Z,1029.70
2019-05-14T14:56:33.768Z,1029.75
2019-05-14T14:57:33.691Z,1029.75
2019-05-14T14:58:33.692Z,1029.75
2019-05-14T15:00:33.696Z,1029.67
2019-05-14T15:01:33.768Z,1029.56
2019-05-14T15:02:33.761Z,1029.55
2019-05-14T15:03:33.713Z,1029.57
2019-05-14T15:05:33.756Z,1029.52
2019-05-14T15:06:33.684Z,1029.52
2019-05-14T15:07:33.692Z,1029.56
2019-05-14T15:08:33.745Z,1029.57
2019-05-14T15:11:33.714Z,1029.50
2019-05-14T15:12:36.071Z,1029.51
2019-05-14T15:13:33.722Z,1029.52
2019-05-14T15:14:33.758Z,1029.50
2019-05-14T15:16:33.800Z,1029.38
2019-05-14T15:17:33.733Z,1029.41
2019-05-14T15:18:33.710Z,1029.35
2019-05-14T15:19:33.792Z,1029.38
2019-05-14T15:21:33.753Z,1029.42
2019-05-14T15:22:33.737Z,1029.47
2019-05-14T15:23:33.810Z,1029.47
2019-05-14T15:24:33.795Z,1029.41
2019-05-14T15:26:33.783Z,1029.47
2019-05-14T15:27:33.774Z,1029.42
2019-05-14T15:28:33.780Z,1029.44
2019-05-14T15:29:33.727Z,1029.40
2019-05-14T15:31:33.780Z,1029.37
2019-05-14T15:32:33.799Z,1029.39
2019-05-14T15:34:33.794Z,1029.29
2019-05-14T15:35:33.802Z,1029.26
2019-05-14T15:36:33.746Z,1029.34
2019-05-14T15:37:33.808Z,1029.28
2019-05-14T15:39:33.748Z,1029.32
2019-05-14T15:40:33.736Z,1029.28
2019-05-14T15:41:33.768Z,1029.27
2019-05-14T15:42:33.746Z,1029.39
2019-05-14T15:44:47.252Z,1029.27
2019-05-14T15:45:33.727Z,1029.26
2019-05-14T15:46:33.772Z,1029.30
2019-05-14T15:48:03.366Z,1029.30
2019-05-14T15:49:38.864Z,1029.25
2019-05-14T15:50:34.732Z,1029.22